sensor_id;sensor_type;location;lat;lon;timestamp;pressure;altitude;pressure_sealevel;temperature;humidity
32197;BME280;18697;42.770;23.400;2022-09-20T00:01:25;95697.66;;;16.20;59.24
32197;BME280;18697;42.770;23.400;2022-09-20T00:03:54;95701.53;;;16.28;59.22
32197;BME280;18697;42.770;23.400;2022-09-20T00:06:26;95698.63;;;16.59;59.13
32197;BME280;18697;42.770;23.400;2022-09-20T00:08:53;95710.38;;;16.63;58.24
32197;BME280;18697;42.770;23.400;2022-09-20T00:11:25;95703.19;;;17.05;57.82
32197;BME280;18697;42.770;23.400;2022-09-20T00:13:53;95709.63;;;17.33;57.05
32197;BME280;18697;42.770;23.400;2022-09-20T00:16:25;95712.94;;;17.37;56.32
32197;BME280;18697;42.770;23.400;2022-09-20T00:18:53;95705.72;;;17.08;56.63
32197;BME280;18697;42.770;23.400;2022-09-20T00:21:21;95714.44;;;17.22;55.69
32197;BME280;18697;42.770;23.400;2022-09-20T00:23:46;95719.81;;;17.25;55.87
32197;BME280;18697;42.770;23.400;2022-09-20T00:26:12;95715.16;;;17.00;55.33
32197;BME280;18697;42.770;23.400;2022-09-20T00:28:38;95709.22;;;15.70;55.40
32197;BME280;18697;42.770;23.400;2022-09-20T00:31:04;95710.09;;;15.82;58.69
32197;BME280;18697;42.770;23.400;2022-09-20T00:33:29;95711.69;;;15.88;59.05
32197;BME280;18697;42.770;23.400;2022-09-20T00:36:13;95708.28;;;15.78;60.97
32197;BME280;18697;42.770;23.400;2022-09-20T00:38:39;95703.75;;;16.18;60.07
32197;BME280;18697;42.770;23.400;2022-09-20T00:41:05;95704.63;;;16.41;59.20
32197;BME280;18697;42.770;23.400;2022-09-20T00:43:40;95704.63;;;16.84;58.22
32197;BME280;18697;42.770;23.400;2022-09-20T00:49:20;95713.47;;;16.65;57.36
32197;BME280;18697;42.770;23.400;2022-09-20T00:51:52;95703.38;;;16.85;59.46
32197;BME280;18697;42.770;23.400;2022-09-20T00:54:20;95713.31;;;16.86;58.71
32197;BME280;18697;42.770;23.400;2022-09-20T00:56:47;95707.66;;;16.74;57.29
32197;BME280;18697;42.770;23.400;2022-09-20T00:59:37;95707.78;;;16.54;56.88
32197;BME280;18697;42.770;23.400;2022-09-20T01:02:15;95696.19;;;16.35;56.52
32197;BME280;18697;42.770;23.400;2022-09-20T01:04:42;95698.03;;;16.01;60.07
32197;BME280;18697;42.770;23.400;2022-09-20T01:07:10;95704.69;;;15.72;57.61
32197;BME280;18697;42.770;23.400;2022-09-20T01:09:37;95701.59;;;15.70;59.19
32197;BME280;18697;42.770;23.400;2022-09-20T01:12:06;95705.25;;;15.82;60.37
32197;BME280;18697;42.770;23.400;2022-09-20T01:14:34;95708.41;;;15.64;56.85
32197;BME280;18697;42.770;23.400;2022-09-20T01:17:03;95702.19;;;15.80;57.12
32197;BME280;18697;42.770;23.400;2022-09-20T01:22:20;95706.50;;;15.50;57.57
32197;BME280;18697;42.770;23.400;2022-09-20T01:27:23;95698.94;;;15.56;60.87
32197;BME280;18697;42.770;23.400;2022-09-20T01:30:11;95709.66;;;15.57;60.41
32197;BME280;18697;42.770;23.400;2022-09-20T01:33:02;95705.03;;;15.54;61.01
32197;BME280;18697;42.770;23.400;2022-09-20T01:35:33;95706.31;;;15.85;60.89
32197;BME280;18697;42.770;23.400;2022-09-20T01:38:41;95695.00;;;16.05;58.99
32197;BME280;18697;42.770;23.400;2022-09-20T01:41:05;95695.72;;;16.00;57.67
32197;BME280;18697;42.770;23.400;2022-09-20T01:43:40;95680.97;;;15.99;59.27
32197;BME280;18697;42.770;23.400;2022-09-20T01:46:31;95681.50;;;16.03;56.45
32197;BME280;18697;42.770;23.400;2022-09-20T01:57:27;95711.22;;;15.95;57.38
32197;BME280;18697;42.770;23.400;2022-09-20T02:00:16;95716.16;;;15.49;57.87
32197;BME280;18697;42.770;23.400;2022-09-20T02:08:07;95712.38;;;14.79;61.92
32197;BME280;18697;42.770;23.400;2022-09-20T02:11:15;95707.69;;;14.71;60.43
32197;BME280;18697;42.770;23.400;2022-09-20T02:14:16;95703.16;;;14.73;61.90
32197;BME280;18697;42.770;23.400;2022-09-20T02:16:52;95698.47;;;15.11;61.20
32197;BME280;18697;42.770;23.400;2022-09-20T02:22:25;95681.25;;;15.70;60.59
32197;BME280;18697;42.770;23.400;2022-09-20T02:32:44;95702.47;;;15.82;58.76
32197;BME280;18697;42.770;23.400;2022-09-20T02:37:55;95703.75;;;16.18;58.78
32197;BME280;18697;42.770;23.400;2022-09-20T02:40:39;95703.34;;;16.31;57.81
32197;BME280;18697;42.770;23.400;2022-09-20T02:43:39;95699.03;;;16.41;57.46
32197;BME280;18697;42.770;23.400;2022-09-20T02:46:13;95704.09;;;16.74;57.10
32197;BME280;18697;42.770;23.400;2022-09-20T02:48:46;95700.66;;;17.07;56.10
32197;BME280;18697;42.770;23.400;2022-09-20T02:51:39;95706.03;;;17.22;55.14
32197;BME280;18697;42.770;23.400;2022-09-20T02:54:37;95711.66;;;17.27;53.94
32197;BME280;18697;42.770;23.400;2022-09-20T03:00:02;95709.91;;;17.41;54.29
32197;BME280;18697;42.770;23.400;2022-09-20T03:05:29;95710.34;;;17.17;54.81
32197;BME280;18697;42.770;23.400;2022-09-20T03:08:25;95706.69;;;16.83;55.13
32197;BME280;18697;42.770;23.400;2022-09-20T03:14:25;95708.69;;;16.77;54.99
32197;BME280;18697;42.770;23.400;2022-09-20T03:23:00;95730.31;;;17.36;54.69
32197;BME280;18697;42.770;23.400;2022-09-20T03:44:30;95735.25;;;17.97;52.19
32197;BME280;18697;42.770;23.400;2022-09-20T03:47:20;95742.91;;;17.96;51.79
32197;BME280;18697;42.770;23.400;2022-09-20T03:50:30;95736.03;;;17.81;51.79
32197;BME280;18697;42.770;23.400;2022-09-20T03:53:12;95736.53;;;17.96;52.63
32197;BME280;18697;42.770;23.400;2022-09-20T04:04:30;95745.97;;;18.04;51.68
32197;BME280;18697;42.770;23.400;2022-09-20T04:13:43;95754.66;;;18.00;51.42
32197;BME280;18697;42.770;23.400;2022-09-20T04:26:39;95757.63;;;17.41;52.65
32197;BME280;18697;42.770;23.400;2022-09-20T04:29:26;95765.25;;;17.29;53.65
32197;BME280;18697;42.770;23.400;2022-09-20T04:32:00;95768.56;;;17.28;53.28
32197;BME280;18697;42.770;23.400;2022-09-20T04:34:45;95765.19;;;17.13;52.07
32197;BME280;18697;42.770;23.400;2022-09-20T04:37:34;95769.78;;;17.16;54.20
32197;BME280;18697;42.770;23.400;2022-09-20T04:42:52;95777.06;;;17.56;54.59
32197;BME280;18697;42.770;23.400;2022-09-20T04:45:46;95780.13;;;17.58;53.26
32197;BME280;18697;42.770;23.400;2022-09-20T04:52:01;95782.00;;;17.89;53.20
32197;BME280;18697;42.770;23.400;2022-09-20T04:56:20;95772.03;;;17.93;52.88
32197;BME280;18697;42.770;23.400;2022-09-20T04:59:04;95777.66;;;18.04;53.09
32197;BME280;18697;42.770;23.400;2022-09-20T05:23:39;95801.66;;;17.89;55.19
32197;BME280;18697;42.770;23.400;2022-09-20T05:29:13;95801.94;;;18.08;54.35
32197;BME280;18697;42.770;23.400;2022-09-20T05:34:32;95798.88;;;18.39;53.44
32197;BME280;18697;42.770;23.400;2022-09-20T05:39:48;95801.66;;;18.84;52.35
32197;BME280;18697;42.770;23.400;2022-09-20T05:42:30;95797.53;;;19.01;51.85
32197;BME280;18697;42.770;23.400;2022-09-20T05:50:46;95790.06;;;19.15;50.75
32197;BME280;18697;42.770;23.400;2022-09-20T06:03:51;95795.75;;;19.62;49.53
32197;BME280;18697;42.770;23.400;2022-09-20T06:06:30;95801.63;;;19.64;45.83
32197;BME280;18697;42.770;23.400;2022-09-20T06:09:35;95809.19;;;19.86;47.54
32197;BME280;18697;42.770;23.400;2022-09-20T06:17:42;95799.53;;;19.76;47.18
32197;BME280;18697;42.770;23.400;2022-09-20T06:20:23;95798.44;;;19.84;48.42
32197;BME280;18697;42.770;23.400;2022-09-20T06:22:52;95799.19;;;19.90;46.75
32197;BME280;18697;42.770;23.400;2022-09-20T06:25:23;95799.31;;;19.68;46.77
32197;BME280;18697;42.770;23.400;2022-09-20T06:27:53;95796.94;;;19.78;48.45
32197;BME280;18697;42.770;23.400;2022-09-20T06:30:25;95793.38;;;19.77;47.49
32197;BME280;18697;42.770;23.400;2022-09-20T06:33:00;95800.72;;;19.91;47.11
32197;BME280;18697;42.770;23.400;2022-09-20T06:35:36;95802.72;;;19.96;47.51
32197;BME280;18697;42.770;23.400;2022-09-20T06:54:39;95795.00;;;19.50;43.75
32197;BME280;18697;42.770;23.400;2022-09-20T06:57:09;95787.47;;;20.11;44.32
32197;BME280;18697;42.770;23.400;2022-09-20T06:59:34;95795.00;;;20.32;43.62
32197;BME280;18697;42.770;23.400;2022-09-20T07:02:00;95801.34;;;20.44;44.45
32197;BME280;18697;42.770;23.400;2022-09-20T07:04:25;95796.56;;;20.63;45.19
32197;BME280;18697;42.770;23.400;2022-09-20T07:06:51;95808.81;;;20.72;44.97
32197;BME280;18697;42.770;23.400;2022-09-20T07:09:18;95806.56;;;20.89;44.31
32197;BME280;18697;42.770;23.400;2022-09-20T07:11:43;95803.41;;;20.74;41.49
32197;BME280;18697;42.770;23.400;2022-09-20T07:14:10;95812.59;;;19.73;43.70
32197;BME280;18697;42.770;23.400;2022-09-20T07:16:36;95799.38;;;19.51;45.41
32197;BME280;18697;42.770;23.400;2022-09-20T07:19:03;95814.69;;;19.67;44.93
32197;BME280;18697;42.770;23.400;2022-09-20T07:21:30;95819.47;;;19.83;44.79
32197;BME280;18697;42.770;23.400;2022-09-20T07:23:56;95811.75;;;19.89;44.68
32197;BME280;18697;42.770;23.400;2022-09-20T07:26:24;95814.16;;;20.10;44.14
32197;BME280;18697;42.770;23.400;2022-09-20T07:28:51;95809.22;;;20.16;43.86
32197;BME280;18697;42.770;23.400;2022-09-20T07:31:18;95808.94;;;20.19;43.14
32197;BME280;18697;42.770;23.400;2022-09-20T07:33:43;95800.16;;;20.28;42.94
32197;BME280;18697;42.770;23.400;2022-09-20T07:36:10;95813.66;;;20.47;42.88
32197;BME280;18697;42.770;23.400;2022-09-20T07:38:39;95798.00;;;20.46;42.96
32197;BME280;18697;42.770;23.400;2022-09-20T07:41:06;95803.41;;;20.44;42.54
32197;BME280;18697;42.770;23.400;2022-09-20T07:43:32;95800.09;;;20.70;42.98
32197;BME280;18697;42.770;23.400;2022-09-20T07:45:58;95792.78;;;20.55;42.09
32197;BME280;18697;42.770;23.400;2022-09-20T07:48:25;95792.94;;;18.87;43.29
32197;BME280;18697;42.770;23.400;2022-09-20T07:51:01;95789.03;;;19.18;43.71
32197;BME280;18697;42.770;23.400;2022-09-20T07:53:28;95788.16;;;18.32;44.56
32197;BME280;18697;42.770;23.400;2022-09-20T07:55:57;95786.09;;;18.38;44.57
32197;BME280;18697;42.770;23.400;2022-09-20T07:58:22;95786.38;;;16.65;45.97
32197;BME280;18697;42.770;23.400;2022-09-20T08:15:07;95780.34;;;19.11;44.55
32197;BME280;18697;42.770;23.400;2022-09-20T08:17:33;95779.72;;;19.34;44.07
32197;BME280;18697;42.770;23.400;2022-09-20T08:19:58;95787.06;;;19.49;44.28
32197;BME280;18697;42.770;23.400;2022-09-20T08:22:24;95786.31;;;18.74;42.24
32197;BME280;18697;42.770;23.400;2022-09-20T08:24:50;95792.69;;;18.80;43.18
32197;BME280;18697;42.770;23.400;2022-09-20T08:27:16;95786.34;;;18.68;42.11
32197;BME280;18697;42.770;23.400;2022-09-20T08:29:41;95791.94;;;18.74;42.66
32197;BME280;18697;42.770;23.400;2022-09-20T08:32:06;95786.09;;;18.27;44.37
32197;BME280;18697;42.770;23.400;2022-09-20T08:34:32;95785.59;;;18.39;44.38
32197;BME280;18697;42.770;23.400;2022-09-20T08:36:57;95780.47;;;18.27;44.90
32197;BME280;18697;42.770;23.400;2022-09-20T08:39:23;95781.75;;;18.43;44.88
32197;BME280;18697;42.770;23.400;2022-09-20T08:42:13;95778.91;;;18.59;45.32
32197;BME280;18697;42.770;23.400;2022-09-20T08:44:52;95772.97;;;18.91;44.99
32197;BME280;18697;42.770;23.400;2022-09-20T08:47:24;95771.66;;;19.09;44.48
32197;BME280;18697;42.770;23.400;2022-09-20T08:49:51;95769.31;;;19.18;42.78
32197;BME280;18697;42.770;23.400;2022-09-20T08:52:24;95760.31;;;19.25;42.72
32197;BME280;18697;42.770;23.400;2022-09-20T08:54:53;95758.41;;;19.45;44.44
32197;BME280;18697;42.770;23.400;2022-09-20T08:57:20;95769.72;;;19.33;40.50
32197;BME280;18697;42.770;23.400;2022-09-20T08:59:46;95767.81;;;19.12;41.82
32197;BME280;18697;42.770;23.400;2022-09-20T09:02:18;95754.94;;;19.27;44.73
32197;BME280;18697;42.770;23.400;2022-09-20T09:04:45;95771.47;;;19.48;42.83
32197;BME280;18697;42.770;23.400;2022-09-20T09:07:12;95760.88;;;19.71;43.11
32197;BME280;18697;42.770;23.400;2022-09-20T09:09:41;95753.16;;;19.77;43.39
32197;BME280;18697;42.770;23.400;2022-09-20T09:12:16;95749.63;;;19.13;42.67
32197;BME280;18697;42.770;23.400;2022-09-20T09:14:43;95741.28;;;19.43;43.67
32197;BME280;18697;42.770;23.400;2022-09-20T09:17:25;95743.47;;;19.20;43.02
32197;BME280;18697;42.770;23.400;2022-09-20T09:30:41;95718.47;;;18.99;40.31
32197;BME280;18697;42.770;23.400;2022-09-20T09:33:24;95715.41;;;18.92;42.72
32197;BME280;18697;42.770;23.400;2022-09-20T09:38:30;95719.88;;;19.28;44.41
32197;BME280;18697;42.770;23.400;2022-09-20T09:40:59;95713.84;;;19.54;40.98
32197;BME280;18697;42.770;23.400;2022-09-20T09:43:27;95709.50;;;19.53;39.79
32197;BME280;18697;42.770;23.400;2022-09-20T09:45:55;95700.31;;;19.42;40.63
32197;BME280;18697;42.770;23.400;2022-09-20T09:48:27;95702.34;;;19.00;41.73
32197;BME280;18697;42.770;23.400;2022-09-20T09:51:18;95700.81;;;18.93;42.60
32197;BME280;18697;42.770;23.400;2022-09-20T09:53:45;95699.50;;;19.06;43.53
32197;BME280;18697;42.770;23.400;2022-09-20T09:59:12;95704.84;;;19.09;42.49
32197;BME280;18697;42.770;23.400;2022-09-20T10:09:53;95703.34;;;19.49;42.72
32197;BME280;18697;42.770;23.400;2022-09-20T10:15:50;95701.53;;;19.57;42.95
32197;BME280;18697;42.770;23.400;2022-09-20T10:21:03;95702.41;;;20.37;40.70
32197;BME280;18697;42.770;23.400;2022-09-20T10:23:53;95685.75;;;21.06;39.59
32197;BME280;18697;42.770;23.400;2022-09-20T10:31:52;95683.06;;;20.22;36.54
32197;BME280;18697;42.770;23.400;2022-09-20T10:37:02;95674.28;;;19.71;38.32
32197;BME280;18697;42.770;23.400;2022-09-20T10:39:32;95672.78;;;19.64;38.34
32197;BME280;18697;42.770;23.400;2022-09-20T10:45:16;95676.38;;;19.65;40.06
32197;BME280;18697;42.770;23.400;2022-09-20T10:48:03;95667.00;;;19.87;39.57
32197;BME280;18697;42.770;23.400;2022-09-20T10:50:43;95670.69;;;18.83;39.73
32197;BME280;18697;42.770;23.400;2022-09-20T11:10:22;95662.72;;;18.92;38.03
32197;BME280;18697;42.770;23.400;2022-09-20T11:12:59;95669.00;;;19.15;39.43
32197;BME280;18697;42.770;23.400;2022-09-20T11:15:34;95652.63;;;19.55;39.29
32197;BME280;18697;42.770;23.400;2022-09-20T11:18:14;95646.22;;;19.90;37.90
32197;BME280;18697;42.770;23.400;2022-09-20T11:20:54;95653.69;;;19.46;37.65
32197;BME280;18697;42.770;23.400;2022-09-20T11:24:04;95653.34;;;19.61;38.12
32197;BME280;18697;42.770;23.400;2022-09-20T11:26:39;95650.19;;;19.34;37.59
32197;BME280;18697;42.770;23.400;2022-09-20T11:32:26;95657.94;;;19.64;37.28
32197;BME280;18697;42.770;23.400;2022-09-20T11:37:38;95643.06;;;19.99;36.44
32197;BME280;18697;42.770;23.400;2022-09-20T11:40:37;95640.28;;;19.93;37.68
32197;BME280;18697;42.770;23.400;2022-09-20T11:43:07;95643.03;;;20.53;37.04
32197;BME280;18697;42.770;23.400;2022-09-20T11:45:36;95630.03;;;20.69;36.02
32197;BME280;18697;42.770;23.400;2022-09-20T11:48:11;95636.66;;;20.72;34.72
32197;BME280;18697;42.770;23.400;2022-09-20T11:56:25;95628.72;;;20.70;33.87
32197;BME280;18697;42.770;23.400;2022-09-20T11:58:54;95621.19;;;20.78;35.61
32197;BME280;18697;42.770;23.400;2022-09-20T12:01:40;95620.19;;;20.27;36.54
32197;BME280;18697;42.770;23.400;2022-09-20T12:06:57;95617.53;;;21.02;35.63
32197;BME280;18697;42.770;23.400;2022-09-20T12:09:24;95619.03;;;20.84;35.84
32197;BME280;18697;42.770;23.400;2022-09-20T12:11:51;95622.38;;;20.83;36.23
32197;BME280;18697;42.770;23.400;2022-09-20T12:14:27;95618.59;;;20.99;35.84
32197;BME280;18697;42.770;23.400;2022-09-20T12:16:56;95621.63;;;20.82;35.70
32197;BME280;18697;42.770;23.400;2022-09-20T12:27:01;95612.56;;;20.89;36.49
32197;BME280;18697;42.770;23.400;2022-09-20T12:31:55;95623.03;;;20.76;35.88
32197;BME280;18697;42.770;23.400;2022-09-20T12:39:18;95619.22;;;20.49;36.41
32197;BME280;18697;42.770;23.400;2022-09-20T12:41:57;95599.66;;;20.56;36.45
32197;BME280;18697;42.770;23.400;2022-09-20T12:44:40;95612.34;;;20.69;36.22
32197;BME280;18697;42.770;23.400;2022-09-20T12:52:25;95606.41;;;19.99;36.81
32197;BME280;18697;42.770;23.400;2022-09-20T12:55:24;95604.41;;;19.94;37.08
32197;BME280;18697;42.770;23.400;2022-09-20T13:00:41;95597.81;;;20.10;35.95
32197;BME280;18697;42.770;23.400;2022-09-20T13:03:34;95598.47;;;20.46;36.85
32197;BME280;18697;42.770;23.400;2022-09-20T13:09:05;95603.34;;;20.21;36.73
32197;BME280;18697;42.770;23.400;2022-09-20T13:11:54;95601.06;;;20.44;36.95
32197;BME280;18697;42.770;23.400;2022-09-20T13:14:28;95601.31;;;20.46;36.28
32197;BME280;18697;42.770;23.400;2022-09-20T13:17:21;95600.53;;;20.46;35.75
32197;BME280;18697;42.770;23.400;2022-09-20T13:19:49;95593.69;;;20.35;36.44
32197;BME280;18697;42.770;23.400;2022-09-20T13:22:28;95593.16;;;20.37;36.11
32197;BME280;18697;42.770;23.400;2022-09-20T13:25:02;95595.06;;;20.29;36.10
32197;BME280;18697;42.770;23.400;2022-09-20T13:27:38;95589.66;;;20.31;36.64
32197;BME280;18697;42.770;23.400;2022-09-20T13:30:20;95593.59;;;19.02;35.61
32197;BME280;18697;42.770;23.400;2022-09-20T13:32:47;95584.72;;;19.28;37.44
32197;BME280;18697;42.770;23.400;2022-09-20T13:40:19;95590.41;;;19.53;37.35
32197;BME280;18697;42.770;23.400;2022-09-20T13:42:47;95590.13;;;19.56;36.85
32197;BME280;18697;42.770;23.400;2022-09-20T13:45:14;95595.97;;;19.64;36.42
32197;BME280;18697;42.770;23.400;2022-09-20T13:47:42;95589.28;;;19.67;37.06
32197;BME280;18697;42.770;23.400;2022-09-20T13:50:21;95586.38;;;19.78;37.48
32197;BME280;18697;42.770;23.400;2022-09-20T13:52:50;95590.09;;;19.62;36.99
32197;BME280;18697;42.770;23.400;2022-09-20T13:55:39;95597.25;;;19.63;37.00
32197;BME280;18697;42.770;23.400;2022-09-20T13:58:30;95598.06;;;19.58;37.41
32197;BME280;18697;42.770;23.400;2022-09-20T14:00:58;95594.44;;;19.63;37.48
32197;BME280;18697;42.770;23.400;2022-09-20T14:03:26;95589.03;;;19.65;37.57
32197;BME280;18697;42.770;23.400;2022-09-20T14:05:55;95594.28;;;19.80;37.40
32197;BME280;18697;42.770;23.400;2022-09-20T14:08:30;95587.69;;;19.72;36.71
32197;BME280;18697;42.770;23.400;2022-09-20T14:14:00;95586.25;;;19.89;37.57
32197;BME280;18697;42.770;23.400;2022-09-20T14:16:29;95586.97;;;19.95;36.63
32197;BME280;18697;42.770;23.400;2022-09-20T14:18:57;95571.28;;;20.00;36.70
32197;BME280;18697;42.770;23.400;2022-09-20T14:21:25;95574.94;;;19.95;36.43
32197;BME280;18697;42.770;23.400;2022-09-20T14:23:59;95580.28;;;19.98;36.79
32197;BME280;18697;42.770;23.400;2022-09-20T14:26:36;95575.97;;;20.16;36.44
32197;BME280;18697;42.770;23.400;2022-09-20T14:29:28;95585.09;;;20.04;35.83
32197;BME280;18697;42.770;23.400;2022-09-20T14:31:55;95579.56;;;19.92;36.63
32197;BME280;18697;42.770;23.400;2022-09-20T14:34:22;95591.47;;;19.80;37.30
32197;BME280;18697;42.770;23.400;2022-09-20T14:36:48;95595.09;;;19.75;36.96
32197;BME280;18697;42.770;23.400;2022-09-20T14:39:16;95595.25;;;19.58;37.85
32197;BME280;18697;42.770;23.400;2022-09-20T14:41:44;95592.94;;;19.56;37.52
32197;BME280;18697;42.770;23.400;2022-09-20T14:44:31;95596.56;;;19.51;36.87
32197;BME280;18697;42.770;23.400;2022-09-20T14:46:58;95600.91;;;19.52;36.80
32197;BME280;18697;42.770;23.400;2022-09-20T14:51:50;95600.34;;;19.24;36.29
32197;BME280;18697;42.770;23.400;2022-09-20T14:54:28;95608.03;;;19.23;36.65
32197;BME280;18697;42.770;23.400;2022-09-20T14:56:56;95607.59;;;19.14;36.93
32197;BME280;18697;42.770;23.400;2022-09-20T14:59:43;95592.38;;;18.92;38.01
32197;BME280;18697;42.770;23.400;2022-09-20T15:02:13;95592.63;;;18.89;38.11
32197;BME280;18697;42.770;23.400;2022-09-20T15:04:41;95579.06;;;18.93;38.41
32197;BME280;18697;42.770;23.400;2022-09-20T15:07:16;95599.47;;;19.04;38.29
32197;BME280;18697;42.770;23.400;2022-09-20T15:09:41;95601.72;;;19.12;38.91
32197;BME280;18697;42.770;23.400;2022-09-20T15:12:17;95596.13;;;19.06;39.20
32197;BME280;18697;42.770;23.400;2022-09-20T15:14:43;95608.19;;;19.01;39.27
32197;BME280;18697;42.770;23.400;2022-09-20T15:17:17;95601.38;;;18.80;39.65
32197;BME280;18697;42.770;23.400;2022-09-20T15:19:43;95600.94;;;18.59;39.89
32197;BME280;18697;42.770;23.400;2022-09-20T15:22:09;95603.75;;;18.64;39.87
32197;BME280;18697;42.770;23.400;2022-09-20T15:24:35;95602.53;;;18.49;40.53
32197;BME280;18697;42.770;23.400;2022-09-20T15:27:01;95608.94;;;18.44;40.61
32197;BME280;18697;42.770;23.400;2022-09-20T15:29:26;95604.09;;;18.38;40.94
32197;BME280;18697;42.770;23.400;2022-09-20T15:31:51;95609.22;;;18.40;41.34
32197;BME280;18697;42.770;23.400;2022-09-20T15:34:17;95606.84;;;18.55;41.24
32197;BME280;18697;42.770;23.400;2022-09-20T15:36:43;95609.88;;;18.57;41.35
32197;BME280;18697;42.770;23.400;2022-09-20T15:39:09;95615.50;;;18.57;41.42
32197;BME280;18697;42.770;23.400;2022-09-20T15:41:35;95611.16;;;18.67;40.03
32197;BME280;18697;42.770;23.400;2022-09-20T15:44:02;95608.63;;;18.64;39.88
32197;BME280;18697;42.770;23.400;2022-09-20T15:46:28;95600.41;;;18.66;40.40
32197;BME280;18697;42.770;23.400;2022-09-20T15:48:55;95607.06;;;18.68;40.13
32197;BME280;18697;42.770;23.400;2022-09-20T15:51:23;95600.16;;;18.69;41.03
32197;BME280;18697;42.770;23.400;2022-09-20T15:53:59;95610.09;;;18.76;40.50
32197;BME280;18697;42.770;23.400;2022-09-20T15:56:27;95617.78;;;18.70;40.80
32197;BME280;18697;42.770;23.400;2022-09-20T15:58:54;95615.69;;;18.82;41.53
32197;BME280;18697;42.770;23.400;2022-09-20T16:01:24;95619.75;;;18.86;40.80
32197;BME280;18697;42.770;23.400;2022-09-20T16:03:50;95615.16;;;18.89;40.29
32197;BME280;18697;42.770;23.400;2022-09-20T16:06:15;95611.34;;;18.81;40.99
32197;BME280;18697;42.770;23.400;2022-09-20T16:08:42;95618.00;;;18.83;41.17
32197;BME280;18697;42.770;23.400;2022-09-20T16:11:11;95621.25;;;18.98;41.29
32197;BME280;18697;42.770;23.400;2022-09-20T16:13:38;95623.44;;;19.17;41.10
32197;BME280;18697;42.770;23.400;2022-09-20T16:16:05;95623.59;;;19.30;40.66
32197;BME280;18697;42.770;23.400;2022-09-20T16:18:30;95620.84;;;19.24;39.97
32197;BME280;18697;42.770;23.400;2022-09-20T16:21:17;95624.44;;;19.19;41.31
32197;BME280;18697;42.770;23.400;2022-09-20T16:23:51;95623.66;;;19.24;40.92
32197;BME280;18697;42.770;23.400;2022-09-20T16:26:18;95631.31;;;19.24;40.54
32197;BME280;18697;42.770;23.400;2022-09-20T16:28:44;95630.66;;;19.42;41.09
32197;BME280;18697;42.770;23.400;2022-09-20T16:36:47;95628.00;;;19.91;40.17
32197;BME280;18697;42.770;23.400;2022-09-20T16:39:14;95631.59;;;19.91;40.27
32197;BME280;18697;42.770;23.400;2022-09-20T16:41:41;95633.31;;;20.00;39.87
32197;BME280;18697;42.770;23.400;2022-09-20T16:44:07;95634.06;;;20.00;40.22
32197;BME280;18697;42.770;23.400;2022-09-20T16:46:32;95628.44;;;20.00;40.15
32197;BME280;18697;42.770;23.400;2022-09-20T16:49:05;95640.41;;;20.07;39.69
32197;BME280;18697;42.770;23.400;2022-09-20T16:51:36;95640.63;;;19.84;40.46
32197;BME280;18697;42.770;23.400;2022-09-20T16:54:04;95650.59;;;19.50;41.00
32197;BME280;18697;42.770;23.400;2022-09-20T16:56:32;95650.84;;;19.52;41.19
32197;BME280;18697;42.770;23.400;2022-09-20T16:59:02;95651.50;;;19.69;41.54
32197;BME280;18697;42.770;23.400;2022-09-20T17:01:28;95650.22;;;19.70;41.26
32197;BME280;18697;42.770;23.400;2022-09-20T17:03:54;95648.59;;;19.80;41.21
32197;BME280;18697;42.770;23.400;2022-09-20T17:06:21;95656.72;;;19.89;40.71
32197;BME280;18697;42.770;23.400;2022-09-20T17:08:50;95652.81;;;19.98;41.56
32197;BME280;18697;42.770;23.400;2022-09-20T17:11:19;95658.69;;;20.00;41.65
32197;BME280;18697;42.770;23.400;2022-09-20T17:13:47;95660.63;;;19.40;41.99
32197;BME280;18697;42.770;23.400;2022-09-20T17:16:20;95660.13;;;18.20;43.53
32197;BME280;18697;42.770;23.400;2022-09-20T17:19:09;95651.88;;;18.44;44.34
32197;BME280;18697;42.770;23.400;2022-09-20T17:21:38;95661.50;;;18.77;44.82
32197;BME280;18697;42.770;23.400;2022-09-20T17:24:05;95661.41;;;18.99;44.08
32197;BME280;18697;42.770;23.400;2022-09-20T17:26:38;95665.38;;;19.20;44.01
32197;BME280;18697;42.770;23.400;2022-09-20T17:29:07;95663.94;;;19.44;43.40
32197;BME280;18697;42.770;23.400;2022-09-20T17:31:36;95670.03;;;19.59;42.80
32197;BME280;18697;42.770;23.400;2022-09-20T17:34:04;95669.72;;;19.62;42.51
32197;BME280;18697;42.770;23.400;2022-09-20T17:36:33;95672.25;;;18.73;40.92
32197;BME280;18697;42.770;23.400;2022-09-20T17:39:00;95671.91;;;18.01;44.48
32197;BME280;18697;42.770;23.400;2022-09-20T17:41:28;95683.47;;;16.40;45.93
32197;BME280;18697;42.770;23.400;2022-09-20T17:43:55;95679.44;;;15.98;47.37
32197;BME280;18697;42.770;23.400;2022-09-20T17:46:23;95691.31;;;16.25;48.31
32197;BME280;18697;42.770;23.400;2022-09-20T17:49:00;95687.09;;;17.00;49.33
32197;BME280;18697;42.770;23.400;2022-09-20T17:51:31;95689.78;;;17.65;47.80
32197;BME280;18697;42.770;23.400;2022-09-20T17:53:57;95699.47;;;18.09;46.16
32197;BME280;18697;42.770;23.400;2022-09-20T17:56:24;95693.31;;;18.38;45.47
32197;BME280;18697;42.770;23.400;2022-09-20T17:58:54;95699.38;;;18.64;44.90
32197;BME280;18697;42.770;23.400;2022-09-20T18:01:21;95696.75;;;18.89;43.87
32197;BME280;18697;42.770;23.400;2022-09-20T18:03:47;95710.47;;;19.15;44.10
32197;BME280;18697;42.770;23.400;2022-09-20T18:08:53;95702.63;;;19.37;43.46
32197;BME280;18697;42.770;23.400;2022-09-20T18:11:21;95693.88;;;19.47;42.82
32197;BME280;18697;42.770;23.400;2022-09-20T18:13:47;95705.09;;;19.58;42.62
32197;BME280;18697;42.770;23.400;2022-09-20T18:16:14;95718.00;;;19.36;41.65
32197;BME280;18697;42.770;23.400;2022-09-20T18:18:42;95717.06;;;19.28;43.40
32197;BME280;18697;42.770;23.400;2022-09-20T18:21:15;95710.41;;;19.26;42.82
32197;BME280;18697;42.770;23.400;2022-09-20T18:23:42;95716.84;;;19.21;43.27